Main page
METAR-TAF:

METAR-TAF

Airports :

Ouagadougou Airport

Ouagadougou, Burkina Faso

latitude: 12-21N, longitude: 001-31W, elevation: 316 m

Current weather observation

The report was made 32 minutes ago, at 11:00 UTC
Wind 6 kt from the South
Temperature 30°C
Humidity 62%
Pressure 1016 hPa
Visibility 10 km or more
Few clouds at a height of 2000 ft

METAR: DFFD 151100Z 18006KT 9999 FEW020 30/22 Q1016 NOSIG

Time: 11:32 (11:32 UTC)

Forecast

The report was made 6 hours and 32 minutes ago, at 05:00 UTC
Forecast valid from 15 at 06 UTC to 16 at 12 UTC
Wind 8 kt from the Southwest
Visibility 10 km or more
Few clouds at a height of 2000 ft
Temporary
from 15 at 12 UTC to 15 at 24 UTC
Visibility: 4000 m
Scattered clouds at a height of 2000 ft
Few clouds at a height of 3600 ft, Cumulonimbus.
thunderstorm, rain

TAF: DFFD 150500Z 1506/1612 22008KT 9999 FEW020 TEMPO 1512/1524 4000 TSRA SCT020 FEW036CB

Weather observations and forecasts of more than 4000 airports (METAR and TAF reports).

The available stations are represented by yellow and red dots on the map.

Hover mouse over dot to see the name of the station.

Then click to see weather observations and forecasts.

To change the map : click on the green buttons with a black cross to zoom in, on the green button with a dash to zoom out, or on the green arrows for adjacent maps.


METAR-TAF: